Time;durP1;ratioP1;P1;durP2;ratioP2;P2;SDS_P1;SDS_P2;PMS_P1;PMS_P2;Temp;Humidity;BMP_temperature;BMP_pressure;BME280_temperature;BME280_humidity;BME280_pressure;Samples;Min_cycle;Max_cycle;Signal;HPM_P1;HPM_P2
2023/10/15 00:00:12;;;;;;;2.25;0.68;;;12.40;64.40;14.20;101648.00;;;;5012391;28;20193;-76
2023/10/15 00:02:42;;;;;;;1.95;0.40;;;12.40;64.40;14.20;101653.00;;;;5028521;28;20201;-77
2023/10/15 00:05:12;;;;;;;0.40;0.30;;;12.40;64.30;14.30;101656.00;;;;5030048;28;20200;-77
2023/10/15 00:07:40;;;;;;;0.52;0.40;;;12.40;64.40;14.30;101668.00;;;;5029667;28;20254;-76
2023/10/15 00:10:11;;;;;;;1.00;0.10;;;12.40;64.30;14.30;101673.00;;;;5029311;28;20235;-77
2023/10/15 00:12:39;;;;;;;1.15;0.30;;;12.40;64.30;14.30;101672.00;;;;5023194;28;20670;-77
2023/10/15 00:15:14;;;;;;;0.45;0.20;;;12.50;64.30;14.30;101670.00;;;;5016317;28;20211;-77
2023/10/15 00:17:42;;;;;;;0.50;0.20;;;12.50;64.30;14.30;101669.00;;;;5028361;28;20200;-77
2023/10/15 00:20:15;;;;;;;2.10;0.40;;;12.50;64.30;14.30;101665.00;;;;5029633;28;20258;-77
2023/10/15 00:22:43;;;;;;;2.13;0.35;;;12.50;64.40;14.30;101659.00;;;;5014340;28;20197;-77
2023/10/15 00:25:14;;;;;;;1.25;0.20;;;12.50;64.40;14.30;101652.00;;;;5009525;28;20263;-77
2023/10/15 00:27:42;;;;;;;1.00;0.30;;;12.50;64.40;14.30;101649.00;;;;5009678;28;20275;-77
2023/10/15 00:30:13;;;;;;;0.57;0.25;;;12.50;64.40;14.30;101631.00;;;;5027775;28;20195;-77
2023/10/15 00:32:43;;;;;;;0.95;0.32;;;12.50;64.50;14.30;101629.00;;;;5009640;28;20208;-77
2023/10/15 00:35:13;;;;;;;2.03;0.40;;;12.50;64.50;14.30;101625.00;;;;5007468;28;20213;-77
2023/10/15 00:37:50;;;;;;;1.67;0.50;;;12.50;64.50;14.30;101608.00;;;;5009789;28;20205;-77
2023/10/15 00:40:22;;;;;;;1.23;0.30;;;12.50;64.40;14.30;101616.00;;;;5009034;28;20292;-77
2023/10/15 00:42:49;;;;;;;1.83;0.52;;;12.50;64.30;14.30;101621.00;;;;5026915;28;20207;-77
2023/10/15 00:45:18;;;;;;;0.98;0.32;;;12.50;64.20;14.30;101623.00;;;;5026368;28;20188;-77
2023/10/15 00:47:51;;;;;;;0.57;0.30;;;12.50;64.30;14.30;101614.00;;;;5022371;28;20204;-76
2023/10/15 00:50:20;;;;;;;1.02;0.28;;;12.60;64.30;14.30;101602.00;;;;5009233;28;20201;-76
2023/10/15 00:52:50;;;;;;;1.95;0.20;;;12.50;64.30;14.30;101599.00;;;;5024794;28;20220;-76
2023/10/15 00:55:20;;;;;;;3.72;0.40;;;12.50;64.30;14.30;101595.00;;;;5027682;28;20208;-76
2023/10/15 00:57:56;;;;;;;2.35;0.40;;;12.50;64.30;14.30;101588.00;;;;5012759;28;20208;-77
2023/10/15 01:00:47;;;;;;;1.92;0.40;;;12.50;64.20;14.30;101588.00;;;;5019612;28;20200;-77
2023/10/15 01:03:16;;;;;;;4.25;0.60;;;12.50;64.20;14.30;101596.00;;;;5021629;28;20200;-77
2023/10/15 01:05:53;;;;;;;1.58;0.20;;;12.50;64.10;14.30;101597.00;;;;5013637;28;20197;-77
2023/10/15 01:08:26;;;;;;;1.52;0.30;;;12.50;64.20;14.30;101606.00;;;;5020040;28;20317;-76
2023/10/15 01:11:09;;;;;;;0.38;0.17;;;12.50;64.30;14.30;101617.00;;;;5022159;28;20240;-77
2023/10/15 01:13:38;;;;;;;0.28;0.20;;;12.50;64.60;14.40;101616.00;;;;5008979;28;20204;-77
2023/10/15 01:16:08;;;;;;;2.78;0.40;;;12.50;64.50;14.40;101607.00;;;;5008994;28;20201;-77
2023/10/15 01:18:36;;;;;;;1.05;0.25;;;12.50;64.50;14.40;101622.00;;;;5009073;28;20197;-76
2023/10/15 01:21:09;;;;;;;0.90;0.30;;;12.50;64.50;14.40;101612.00;;;;5012121;28;20212;-77
2023/10/15 01:23:45;;;;;;;2.20;0.30;;;12.50;64.70;14.40;101627.00;;;;5028931;28;20201;-77
2023/10/15 01:26:23;;;;;;;2.08;0.40;;;12.50;64.70;14.40;101633.00;;;;5010514;28;20657;-77
2023/10/15 01:28:51;;;;;;;0.47;0.17;;;12.50;64.70;14.40;101639.00;;;;5019341;28;20318;-76
2023/10/15 01:31:18;;;;;;;2.28;0.40;;;12.50;64.70;14.40;101643.00;;;;5027700;28;20206;-77
2023/10/15 01:33:49;;;;;;;0.95;0.30;;;12.50;64.70;14.40;101643.00;;;;5028100;28;20207;-77
2023/10/15 01:36:19;;;;;;;1.20;0.20;;;12.60;64.80;14.40;101636.00;;;;5027672;28;20200;-77
2023/10/15 01:38:50;;;;;;;0.85;0.30;;;12.60;64.60;14.30;101634.00;;;;5022409;28;20232;-77
2023/10/15 01:41:19;;;;;;;1.23;0.30;;;12.60;64.50;14.30;101631.00;;;;5027478;28;20196;-77
2023/10/15 01:43:48;;;;;;;0.98;0.20;;;12.60;64.40;14.30;101632.00;;;;5023305;28;20216;-77
2023/10/15 01:46:39;;;;;;;0.63;0.20;;;12.60;64.40;14.30;101615.00;;;;5018299;28;20232;-77
2023/10/15 01:49:07;;;;;;;2.80;0.30;;;12.60;65.10;14.30;101580.00;;;;5026604;28;20523;-77
2023/10/15 01:51:39;;;;;;;2.22;0.20;;;12.60;64.50;14.30;101563.00;;;;5020098;28;20213;-77
2023/10/15 01:54:09;;;;;;;0.10;0.00;;;12.60;64.30;14.30;101566.00;;;;5008604;28;20201;-77
2023/10/15 01:56:37;;;;;;;1.48;0.13;;;12.60;64.30;14.30;101573.00;;;;5010031;28;20236;-77
2023/10/15 01:59:08;;;;;;;0.60;0.20;;;12.50;64.30;14.30;101565.00;;;;5007169;28;20197;-77
2023/10/15 02:01:40;;;;;;;0.70;0.10;;;12.50;64.30;14.30;101570.00;;;;5014020;28;20679;-77
2023/10/15 02:04:14;;;;;;;1.27;0.40;;;12.50;64.40;14.30;101572.00;;;;5007612;28;20565;-77
2023/10/15 02:06:43;;;;;;;0.75;0.35;;;12.50;64.40;14.30;101583.00;;;;5008163;28;20197;-77
2023/10/15 02:09:12;;;;;;;1.05;0.28;;;12.50;64.50;14.30;101594.00;;;;5007597;28;20221;-78
2023/10/15 02:11:47;;;;;;;0.50;0.10;;;12.50;64.50;14.30;101586.00;;;;5011238;28;20204;-77
2023/10/15 02:14:21;;;;;;;0.85;0.10;;;12.50;64.60;14.30;101579.00;;;;5027064;28;20234;-76
2023/10/15 02:16:50;;;;;;;1.75;0.30;;;12.50;64.60;14.30;101575.00;;;;5021327;28;20197;-77
2023/10/15 02:19:19;;;;;;;0.63;0.20;;;12.50;64.70;14.30;101570.00;;;;5008380;28;20235;-77
2023/10/15 02:21:50;;;;;;;0.60;0.20;;;12.60;64.60;14.30;101563.00;;;;5015050;28;20303;-77
2023/10/15 02:24:17;;;;;;;0.63;0.25;;;12.50;64.50;14.30;101567.00;;;;5026811;28;20688;-77
2023/10/15 02:26:46;;;;;;;0.60;0.30;;;12.50;64.50;14.30;101564.00;;;;5019419;28;20192;-77
2023/10/15 02:31:54;;;;;;;0.80;0.22;;;12.50;64.30;14.30;101567.00;;;;5016142;28;20258;-77
2023/10/15 02:34:27;;;;;;;1.55;0.30;;;12.50;64.30;14.30;101560.00;;;;5028073;28;20197;-77
2023/10/15 02:37:01;;;;;;;0.40;0.08;;;12.50;64.20;14.30;101561.00;;;;5022210;28;20205;-77
2023/10/15 02:39:35;;;;;;;0.50;0.13;;;12.50;64.30;14.30;101559.00;;;;5008653;28;20216;-77
2023/10/15 02:42:04;;;;;;;1.17;0.30;;;12.50;64.40;14.30;101564.00;;;;5015040;28;20200;-77
2023/10/15 02:44:32;;;;;;;1.63;0.10;;;12.50;64.40;14.30;101554.00;;;;5024519;28;20536;-76
2023/10/15 02:47:07;;;;;;;0.80;0.17;;;12.50;64.40;14.30;101550.00;;;;5017091;28;20200;-77
2023/10/15 02:49:50;;;;;;;2.70;0.35;;;12.40;64.40;14.30;101545.00;;;;5031625;28;20220;-77
2023/10/15 02:52:19;;;;;;;0.98;0.30;;;12.40;64.40;14.20;101541.00;;;;5019679;28;20197;-77
2023/10/15 02:54:46;;;;;;;0.30;0.10;;;12.40;64.50;14.20;101542.00;;;;5011201;28;20237;-77
2023/10/15 02:57:16;;;;;;;0.65;0.10;;;12.40;64.50;14.20;101554.00;;;;5017434;28;20200;-77
2023/10/15 02:59:50;;;;;;;0.17;0.00;;;12.40;64.50;14.20;101549.00;;;;5011718;28;20201;-77
2023/10/15 03:02:19;;;;;;;1.52;0.35;;;12.40;65.20;14.20;101554.00;;;;5011008;28;20211;-77
2023/10/15 03:04:51;;;;;;;1.40;0.15;;;12.40;64.50;14.20;101557.00;;;;5016608;28;20216;-77
2023/10/15 03:07:19;;;;;;;0.25;0.10;;;12.30;64.40;14.20;101564.00;;;;5014235;28;20204;-77
2023/10/15 03:09:51;;;;;;;0.80;0.40;;;12.30;64.40;14.10;101563.00;;;;5013665;28;20322;-77
2023/10/15 03:12:19;;;;;;;0.80;0.10;;;12.30;64.40;14.10;101571.00;;;;5025312;28;20196;-77
2023/10/15 03:14:47;;;;;;;0.25;0.10;;;12.30;64.40;14.10;101582.00;;;;5010831;28;20701;-77
2023/10/15 03:17:24;;;;;;;3.40;0.20;;;12.20;64.40;14.10;101587.00;;;;5015425;28;20591;-77
2023/10/15 03:19:52;;;;;;;0.13;0.05;;;12.20;64.50;14.10;101599.00;;;;5031219;28;20239;-76
2023/10/15 03:22:23;;;;;;;0.25;0.10;;;12.20;64.70;14.10;101607.00;;;;5019715;28;20255;-77
2023/10/15 03:24:53;;;;;;;0.77;0.20;;;12.20;64.80;14.10;101625.00;;;;5023894;28;20196;-77
2023/10/15 03:27:26;;;;;;;0.65;0.20;;;12.20;64.80;14.10;101618.00;;;;5010371;28;20722;-77
2023/10/15 03:29:56;;;;;;;0.82;0.25;;;12.20;64.90;14.10;101625.00;;;;5014240;28;20227;-77
2023/10/15 03:32:27;;;;;;;0.63;0.30;;;12.20;65.00;14.10;101635.00;;;;5028336;28;20193;-77
2023/10/15 03:34:59;;;;;;;1.17;0.20;;;12.20;65.00;14.10;101653.00;;;;5012955;28;20204;-77
2023/10/15 03:37:27;;;;;;;1.05;0.30;;;12.20;65.10;14.10;101651.00;;;;5018029;28;20348;-77
2023/10/15 03:39:55;;;;;;;1.25;0.20;;;12.30;65.10;14.10;101644.00;;;;5010450;28;20224;-77
2023/10/15 03:42:27;;;;;;;1.25;0.30;;;12.30;65.10;14.00;101635.00;;;;5018910;28;20434;-77
2023/10/15 03:44:59;;;;;;;1.38;0.30;;;12.30;65.20;14.00;101613.00;;;;5010159;28;20208;-77
2023/10/15 03:47:27;;;;;;;1.10;0.20;;;12.30;65.20;14.00;101620.00;;;;5009884;28;20189;-77
2023/10/15 03:49:55;;;;;;;0.75;0.20;;;12.30;65.00;14.00;101627.00;;;;5020683;28;20236;-77
2023/10/15 03:52:26;;;;;;;0.82;0.20;;;12.30;64.90;14.00;101631.00;;;;5028646;28;20222;-77
2023/10/15 03:54:53;;;;;;;0.45;0.10;;;12.30;65.00;14.00;101636.00;;;;5015148;28;20211;-76
2023/10/15 03:57:27;;;;;;;0.47;0.20;;;12.30;65.00;14.00;101648.00;;;;5010757;28;20203;-77
2023/10/15 03:59:55;;;;;;;1.35;0.20;;;12.30;65.10;14.10;101653.00;;;;5010932;28;20201;-77
2023/10/15 04:02:25;;;;;;;0.60;0.20;;;12.30;65.20;14.10;101652.00;;;;5025541;28;20236;-77
2023/10/15 04:05:07;;;;;;;2.35;0.20;;;12.30;65.20;14.10;101640.00;;;;5012443;28;20228;-77
2023/10/15 04:07:39;;;;;;;1.00;0.10;;;12.30;65.20;14.10;101623.00;;;;5009135;28;20205;-77
2023/10/15 04:10:08;;;;;;;1.05;0.20;;;12.30;65.20;14.10;101633.00;;;;5018370;28;20236;-77
2023/10/15 04:12:40;;;;;;;0.70;0.10;;;12.30;65.10;14.10;101659.00;;;;5018574;28;20201;-77
2023/10/15 04:15:14;;;;;;;0.40;0.20;;;12.30;65.00;14.10;101682.00;;;;5012474;28;20204;-77
2023/10/15 04:17:44;;;;;;;1.08;0.20;;;12.30;65.00;14.00;101669.00;;;;5029890;28;20211;-77
2023/10/15 04:20:15;;;;;;;2.60;0.20;;;12.40;65.00;14.00;101663.00;;;;5029119;28;20295;-78
2023/10/15 04:22:44;;;;;;;1.40;0.10;;;12.30;64.60;14.00;101658.00;;;;5028620;28;20219;-77
2023/10/15 04:25:23;;;;;;;1.08;0.20;;;12.30;64.50;13.90;101657.00;;;;5027301;28;20232;-77
2023/10/15 04:27:52;;;;;;;0.30;0.10;;;12.30;64.60;13.90;101639.00;;;;5012496;28;20267;-77
2023/10/15 04:30:19;;;;;;;0.43;0.13;;;12.30;64.50;13.90;101623.00;;;;5029003;28;20728;-78
2023/10/15 04:32:47;;;;;;;0.43;0.10;;;12.30;64.50;13.90;101606.00;;;;5010633;28;20201;-77
2023/10/15 04:35:17;;;;;;;0.40;0.10;;;12.20;64.40;13.90;101598.00;;;;5009494;28;20201;-77
2023/10/15 04:37:46;;;;;;;2.70;0.40;;;12.20;64.40;13.90;101584.00;;;;5015936;28;20764;-77
2023/10/15 04:40:16;;;;;;;0.47;0.20;;;12.20;64.30;13.90;101573.00;;;;5029103;28;20302;-77
2023/10/15 04:42:48;;;;;;;0.45;0.17;;;12.20;64.50;13.90;101577.00;;;;5012095;28;20713;-77
2023/10/15 04:45:24;;;;;;;3.13;0.20;;;12.20;64.50;13.90;101587.00;;;;5009516;28;21065;-77
2023/10/15 04:47:53;;;;;;;1.92;0.30;;;12.20;64.30;13.90;101585.00;;;;5013476;28;20196;-77
2023/10/15 04:50:21;;;;;;;0.95;0.30;;;12.10;64.20;13.80;101597.00;;;;5028708;28;20282;-77
2023/10/15 04:52:48;;;;;;;0.75;0.10;;;12.10;64.20;13.80;101600.00;;;;5013096;28;20200;-77
2023/10/15 04:55:17;;;;;;;0.10;0.10;;;12.10;64.20;13.80;101598.00;;;;5016069;28;20211;-77
2023/10/15 04:57:46;;;;;;;0.50;0.10;;;12.10;64.20;13.70;101597.00;;;;5024782;28;20207;-77
2023/10/15 05:00:25;;;;;;;0.77;0.13;;;12.00;64.20;13.70;101604.00;;;;5012622;28;20216;-77
2023/10/15 05:02:52;;;;;;;1.48;0.40;;;12.00;64.10;13.70;101606.00;;;;5019902;28;20323;-77
2023/10/15 05:05:19;;;;;;;1.10;0.15;;;11.90;64.10;13.60;101607.00;;;;5011212;28;20627;-78
2023/10/15 05:07:46;;;;;;;0.10;0.05;;;11.90;64.10;13.60;101620.00;;;;5017496;28;20193;-78
2023/10/15 05:10:13;;;;;;;0.28;0.20;;;11.80;64.10;13.60;101618.00;;;;5013982;28;20233;-78
2023/10/15 05:12:40;;;;;;;1.55;0.30;;;11.80;64.10;13.60;101613.00;;;;5014474;28;20201;-78
2023/10/15 05:15:13;;;;;;;0.43;0.20;;;11.80;64.10;13.50;101613.00;;;;5011926;28;20675;-78
2023/10/15 05:17:43;;;;;;;0.85;0.10;;;11.70;64.10;13.50;101622.00;;;;5008916;28;20197;-78
2023/10/15 05:20:13;;;;;;;0.75;0.17;;;11.70;64.10;13.50;101627.00;;;;5022310;28;20204;-78
2023/10/15 05:22:40;;;;;;;1.23;0.20;;;11.70;64.20;13.50;101637.00;;;;5024422;28;20564;-77
2023/10/15 05:25:15;;;;;;;1.50;0.15;;;11.60;64.20;13.50;101639.00;;;;5020738;28;20204;-78
2023/10/15 05:27:42;;;;;;;0.68;0.40;;;11.60;64.20;13.40;101638.00;;;;5022548;28;20207;-78
2023/10/15 05:30:10;;;;;;;1.15;0.50;;;11.60;64.40;13.40;101646.00;;;;5013899;28;20591;-78
2023/10/15 05:32:38;;;;;;;2.75;0.40;;;11.60;64.60;13.40;101650.00;;;;5013348;28;20645;-78
2023/10/15 05:35:08;;;;;;;2.85;0.20;;;11.50;64.70;13.40;101653.00;;;;5015181;28;20197;-77
2023/10/15 05:37:39;;;;;;;1.48;0.30;;;11.50;64.80;13.50;101645.00;;;;5016087;28;20200;-78
2023/10/15 05:40:12;;;;;;;1.90;0.20;;;11.50;64.90;13.50;101663.00;;;;5019868;28;20276;-76
2023/10/15 05:42:41;;;;;;;0.70;0.20;;;11.60;65.20;13.50;101665.00;;;;5013202;28;20200;-78
2023/10/15 05:45:09;;;;;;;0.75;0.20;;;11.60;65.20;13.50;101646.00;;;;5016231;28;20197;-78
2023/10/15 05:47:40;;;;;;;0.10;0.10;;;11.60;65.10;13.50;101646.00;;;;5015269;28;20196;-78
2023/10/15 05:50:12;;;;;;;1.20;0.20;;;11.60;65.10;13.40;101649.00;;;;5015979;28;20302;-78
2023/10/15 05:52:39;;;;;;;1.15;0.28;;;11.60;65.10;13.40;101643.00;;;;5014986;28;20242;-78
2023/10/15 05:55:08;;;;;;;0.95;0.40;;;11.60;65.10;13.40;101641.00;;;;5016276;28;20200;-78
2023/10/15 05:57:36;;;;;;;0.22;0.10;;;11.60;65.20;13.40;101659.00;;;;5019718;28;20200;-78
2023/10/15 06:00:17;;;;;;;0.30;0.10;;;11.60;65.20;13.40;101660.00;;;;5016773;28;20698;-77
2023/10/15 06:02:44;;;;;;;0.28;0.15;;;11.60;65.20;13.40;101661.00;;;;5022872;28;20623;-77
2023/10/15 06:05:13;;;;;;;0.63;0.20;;;11.60;65.20;13.40;101679.00;;;;5015756;28;20201;-78
2023/10/15 06:07:40;;;;;;;0.50;0.22;;;11.60;65.20;13.40;101680.00;;;;5022769;28;20288;-78
2023/10/15 06:10:08;;;;;;;1.23;0.20;;;11.60;65.30;13.40;101683.00;;;;5016895;28;20240;-78
2023/10/15 06:12:35;;;;;;;1.02;0.20;;;11.60;65.40;13.50;101655.00;;;;5018187;28;20200;-76
2023/10/15 06:15:04;;;;;;;1.33;0.20;;;11.60;65.40;13.50;101670.00;;;;5019219;28;20200;-78
2023/10/15 06:17:31;;;;;;;0.50;0.20;;;11.60;65.40;13.40;101670.00;;;;5015310;28;20336;-78
2023/10/15 06:19:58;;;;;;;2.05;0.30;;;11.60;65.40;13.50;101674.00;;;;5012192;28;20209;-75
2023/10/15 06:22:26;;;;;;;0.20;0.20;;;11.60;65.40;13.50;101681.00;;;;5016980;28;20192;-76
2023/10/15 06:24:53;;;;;;;3.20;0.50;;;11.60;65.50;13.50;101705.00;;;;5017674;28;20196;-76
2023/10/15 06:27:20;;;;;;;1.85;0.25;;;11.60;65.60;13.50;101705.00;;;;5019555;28;20570;-76
2023/10/15 06:29:47;;;;;;;1.85;0.30;;;11.60;65.70;13.50;101694.00;;;;5016846;28;20196;-76
2023/10/15 06:32:14;;;;;;;0.88;0.30;;;11.70;65.80;13.50;101686.00;;;;5016486;28;20223;-76
2023/10/15 06:34:41;;;;;;;3.25;0.28;;;11.70;65.80;13.60;101696.00;;;;5019131;28;20665;-76
2023/10/15 06:37:08;;;;;;;0.40;0.20;;;11.70;65.90;13.60;101700.00;;;;5022031;28;20204;-76
2023/10/15 06:39:36;;;;;;;0.95;0.20;;;11.70;65.90;13.60;101690.00;;;;5022988;28;20724;-76
2023/10/15 06:42:03;;;;;;;1.42;0.30;;;11.70;65.90;13.60;101703.00;;;;5018083;28;20208;-76
2023/10/15 06:44:31;;;;;;;0.50;0.20;;;11.80;66.00;13.60;101694.00;;;;5017930;28;20200;-76
2023/10/15 06:46:57;;;;;;;0.85;0.25;;;11.80;66.00;13.70;101696.00;;;;5021515;28;20319;-76
2023/10/15 06:49:25;;;;;;;0.65;0.20;;;11.80;66.00;13.70;101698.00;;;;5017089;28;20219;-76
2023/10/15 06:51:52;;;;;;;2.63;0.52;;;11.90;66.20;13.70;101707.00;;;;5014709;28;20322;-77
2023/10/15 06:54:19;;;;;;;1.20;0.30;;;11.90;66.20;13.80;101717.00;;;;5018988;28;20216;-76
2023/10/15 06:56:47;;;;;;;1.70;0.20;;;11.90;66.10;13.80;101722.00;;;;5020615;28;20573;-76
2023/10/15 06:59:17;;;;;;;2.55;0.50;;;11.90;66.20;13.80;101721.00;;;;5018055;28;20475;-76
2023/10/15 07:01:44;;;;;;;1.77;0.40;;;11.90;66.40;13.90;101719.00;;;;5016742;28;20280;-75
2023/10/15 07:04:12;;;;;;;1.88;0.30;;;12.00;66.80;14.00;101728.00;;;;5019405;28;20200;-75
2023/10/15 07:06:39;;;;;;;0.40;0.25;;;12.00;66.60;14.00;101725.00;;;;5018389;28;20300;-76
2023/10/15 07:09:06;;;;;;;2.08;0.20;;;12.10;66.50;14.00;101722.00;;;;5017239;28;20204;-75
2023/10/15 07:11:35;;;;;;;1.55;0.40;;;12.10;66.50;14.10;101733.00;;;;5016713;28;20228;-76
2023/10/15 07:14:03;;;;;;;3.42;0.47;;;12.10;66.40;14.10;101739.00;;;;5015938;28;20201;-75
2023/10/15 07:16:30;;;;;;;4.15;0.43;;;12.20;66.40;14.10;101763.00;;;;5012321;28;20193;-76
2023/10/15 07:18:58;;;;;;;0.40;0.22;;;12.20;66.40;14.10;101784.00;;;;5019489;28;20872;-76
2023/10/15 07:21:25;;;;;;;1.23;0.60;;;12.30;66.40;14.10;101782.00;;;;5011906;28;20204;-77
2023/10/15 07:23:53;;;;;;;2.47;0.43;;;12.30;66.30;14.20;101790.00;;;;5010442;28;20487;-76
2023/10/15 07:26:20;;;;;;;1.92;0.85;;;12.30;66.30;14.20;101780.00;;;;5009759;28;20197;-75
2023/10/15 07:28:46;;;;;;;1.48;0.38;;;12.30;66.10;14.20;101774.00;;;;5010686;28;20319;-77
2023/10/15 07:31:15;;;;;;;2.20;0.30;;;12.30;66.00;14.20;101766.00;;;;5019902;28;20222;-77
2023/10/15 07:33:42;;;;;;;1.17;0.50;;;12.30;66.10;14.20;101784.00;;;;5022625;28;20232;-76
2023/10/15 07:36:09;;;;;;;1.77;0.43;;;12.40;66.20;14.20;101782.00;;;;5025097;28;20204;-76
2023/10/15 07:38:37;;;;;;;2.50;0.75;;;12.40;66.20;14.20;101782.00;;;;5027562;28;20220;-76
2023/10/15 07:41:05;;;;;;;1.63;0.50;;;12.40;66.10;14.20;101774.00;;;;5028861;28;20204;-76
2023/10/15 07:43:32;;;;;;;3.00;0.60;;;12.40;66.10;14.30;101778.00;;;;5011032;28;20212;-76
2023/10/15 07:46:00;;;;;;;1.20;0.52;;;12.40;66.10;14.30;101779.00;;;;5015243;28;20208;-76
2023/10/15 07:48:28;;;;;;;2.03;0.55;;;12.40;66.10;14.30;101784.00;;;;5014747;28;20205;-76
2023/10/15 07:50:55;;;;;;;1.95;1.33;;;12.40;66.20;14.30;101782.00;;;;5012197;28;20225;-76
2023/10/15 07:53:22;;;;;;;3.72;3.25;;;12.40;66.20;14.40;101774.00;;;;5012423;28;20205;-77
2023/10/15 07:55:49;;;;;;;8.40;6.00;;;12.40;66.20;14.40;101790.00;;;;5018290;28;20204;-76
2023/10/15 07:58:17;;;;;;;3.55;3.08;;;12.50;66.40;14.50;101793.00;;;;5013439;28;20197;-76
2023/10/15 08:00:44;;;;;;;2.65;1.65;;;12.50;66.60;14.60;101809.00;;;;5011500;28;20280;-77
2023/10/15 08:03:12;;;;;;;3.72;1.40;;;12.60;66.90;14.60;101824.00;;;;5017368;28;20196;-76
2023/10/15 08:05:40;;;;;;;6.75;1.23;;;12.60;66.90;14.60;101830.00;;;;5022019;28;20204;-75
2023/10/15 08:08:07;;;;;;;1.73;0.40;;;12.70;66.80;14.70;101823.00;;;;5028692;28;20206;-76
2023/10/15 08:10:35;;;;;;;3.35;0.73;;;12.70;66.70;14.70;101823.00;;;;5016427;28;20244;-75
2023/10/15 08:13:02;;;;;;;1.35;0.68;;;12.80;66.40;14.70;101825.00;;;;5011667;28;20236;-75
2023/10/15 08:15:29;;;;;;;1.70;0.50;;;12.80;66.90;14.70;101831.00;;;;5016964;28;20254;-76
2023/10/15 08:17:57;;;;;;;2.65;0.70;;;12.80;66.10;14.70;101833.00;;;;5009155;28;20209;-75
2023/10/15 08:20:24;;;;;;;0.95;0.38;;;12.90;66.10;14.80;101831.00;;;;5013176;28;20204;-76
2023/10/15 08:22:53;;;;;;;2.80;0.40;;;12.90;66.20;14.80;101838.00;;;;5028938;28;20200;-76
2023/10/15 08:25:21;;;;;;;0.60;0.25;;;13.00;66.50;14.90;101848.00;;;;5021951;28;20287;-75
2023/10/15 08:27:48;;;;;;;2.38;0.55;;;13.00;66.50;14.90;101845.00;;;;5013512;28;20193;-75
2023/10/15 08:30:17;;;;;;;0.63;0.30;;;13.10;66.50;15.00;101845.00;;;;5007333;28;20228;-76
2023/10/15 08:32:47;;;;;;;0.35;0.20;;;13.10;66.30;15.00;101855.00;;;;5008487;28;20694;-76
2023/10/15 08:35:16;;;;;;;1.50;0.40;;;13.10;66.20;15.00;101847.00;;;;5014534;28;20196;-75
2023/10/15 08:37:44;;;;;;;0.90;0.30;;;13.20;66.20;15.10;101853.00;;;;5019424;28;20211;-75
2023/10/15 08:40:16;;;;;;;1.05;0.63;;;13.20;66.10;15.10;101852.00;;;;5017769;28;20219;-75
2023/10/15 08:43:00;;;;;;;4.60;0.57;;;13.20;66.00;15.10;101856.00;;;;5008827;28;20204;-75
2023/10/15 08:45:27;;;;;;;0.30;0.20;;;13.20;66.00;15.20;101856.00;;;;5012313;28;20204;-75
2023/10/15 08:47:55;;;;;;;1.08;0.30;;;13.30;66.00;15.20;101842.00;;;;5025099;28;20208;-75
2023/10/15 08:50:23;;;;;;;2.72;0.60;;;13.30;65.80;15.20;101847.00;;;;5028676;28;20188;-75
2023/10/15 08:52:52;;;;;;;2.72;0.38;;;13.40;65.80;15.20;101847.00;;;;5028957;28;20235;-76
2023/10/15 08:55:22;;;;;;;0.77;0.28;;;13.40;65.80;15.20;101852.00;;;;5009581;28;20299;-76
2023/10/15 08:57:54;;;;;;;1.70;0.45;;;13.40;65.80;15.30;101854.00;;;;5015405;28;20234;-75
2023/10/15 09:00:30;;;;;;;1.70;0.40;;;13.40;65.80;15.30;101870.00;;;;5028307;28;20205;-75
2023/10/15 09:03:00;;;;;;;0.60;0.10;;;13.40;65.70;15.30;101869.00;;;;5024610;28;20192;-75
2023/10/15 09:05:30;;;;;;;0.98;0.30;;;13.40;65.60;15.30;101870.00;;;;5009821;28;20209;-76
2023/10/15 09:08:04;;;;;;;2.45;0.40;;;13.40;65.60;15.40;101878.00;;;;5009315;28;20198;-76
2023/10/15 09:10:32;;;;;;;2.13;0.40;;;13.50;65.90;15.50;101887.00;;;;5009212;28;20228;-76
2023/10/15 09:13:00;;;;;;;1.15;0.35;;;13.50;66.00;15.60;101906.00;;;;5012897;28;20209;-76
2023/10/15 09:15:30;;;;;;;1.60;0.28;;;13.60;66.00;15.60;101924.00;;;;5011361;28;20200;-76
2023/10/15 09:17:58;;;;;;;1.77;0.32;;;13.60;66.00;15.60;101929.00;;;;5009035;28;20201;-76
2023/10/15 09:20:32;;;;;;;1.10;0.20;;;13.70;66.00;15.70;101947.00;;;;5009013;28;20203;-76
2023/10/15 09:23:01;;;;;;;1.05;0.13;;;13.80;65.90;15.60;101918.00;;;;5028311;28;20210;-77
2023/10/15 09:25:29;;;;;;;0.68;0.17;;;13.80;65.50;15.60;101935.00;;;;5012186;28;20208;-76
2023/10/15 09:28:00;;;;;;;1.48;0.50;;;13.80;65.00;15.50;101925.00;;;;5008552;28;20781;-77
2023/10/15 09:30:30;;;;;;;1.10;0.40;;;13.80;64.40;15.50;101934.00;;;;5007885;28;20829;-77
2023/10/15 09:32:57;;;;;;;1.80;0.38;;;13.80;64.40;15.50;101938.00;;;;5008427;28;20224;-77
2023/10/15 09:35:25;;;;;;;0.32;0.15;;;13.70;65.20;15.50;101938.00;;;;5008061;28;20831;-76
2023/10/15 09:37:53;;;;;;;0.50;0.20;;;13.80;64.90;15.60;101941.00;;;;5022613;28;20243;-76
2023/10/15 09:40:30;;;;;;;2.80;0.38;;;13.80;65.30;15.70;101932.00;;;;5014828;28;20224;-77
2023/10/15 09:42:59;;;;;;;2.25;0.52;;;13.80;65.50;15.70;101937.00;;;;5008823;28;20196;-76
2023/10/15 09:45:30;;;;;;;1.55;0.32;;;13.80;65.50;15.80;101937.00;;;;5008703;28;20430;-76
2023/10/15 09:47:58;;;;;;;1.05;0.30;;;13.90;65.50;15.80;101940.00;;;;5008331;28;20208;-76
2023/10/15 09:50:27;;;;;;;1.65;0.28;;;13.90;65.20;15.90;101941.00;;;;5008127;28;20654;-76
2023/10/15 09:52:57;;;;;;;2.75;0.40;;;14.00;65.10;15.90;101946.00;;;;5009237;28;20279;-76
2023/10/15 09:55:26;;;;;;;1.25;0.47;;;14.00;65.20;16.00;101941.00;;;;5008565;28;20347;-76
2023/10/15 09:57:55;;;;;;;3.45;0.40;;;14.10;65.30;16.10;101947.00;;;;5011897;28;20292;-76
2023/10/15 10:00:46;;;;;;;0.80;0.30;;;14.10;65.40;16.20;101949.00;;;;5012538;28;20205;-76
2023/10/15 10:03:37;;;;;;;1.85;0.50;;;14.20;65.50;16.20;101949.00;;;;5012441;28;20208;-76
2023/10/15 10:06:22;;;;;;;0.80;0.20;;;14.30;65.20;16.20;101954.00;;;;5012271;28;20196;-76
2023/10/15 10:09:22;;;;;;;0.90;0.30;;;14.40;65.00;16.30;101955.00;;;;5016076;28;20280;-76
2023/10/15 10:12:08;;;;;;;0.82;0.30;;;14.50;65.00;16.40;101953.00;;;;5011307;28;20224;-76
2023/10/15 10:15:02;;;;;;;0.57;0.10;;;14.60;65.00;16.40;101961.00;;;;5021643;28;20200;-76
2023/10/15 10:17:32;;;;;;;0.70;0.20;;;14.60;64.80;16.60;101975.00;;;;5032168;28;20291;-76
2023/10/15 10:20:10;;;;;;;1.50;0.32;;;14.70;65.00;16.70;101972.00;;;;5031912;28;20196;-76
2023/10/15 10:22:39;;;;;;;1.30;0.45;;;14.80;65.00;16.80;101961.00;;;;5019292;28;20291;-76
2023/10/15 10:25:11;;;;;;;2.97;0.65;;;14.80;64.80;16.80;101962.00;;;;5013022;28;20212;-76
2023/10/15 10:27:46;;;;;;;1.13;0.30;;;15.00;64.80;16.90;101973.00;;;;5031009;28;20227;-76
2023/10/15 10:30:28;;;;;;;1.58;0.50;;;15.00;64.70;16.90;101976.00;;;;5031550;28;20591;-77
2023/10/15 10:32:59;;;;;;;0.80;0.28;;;15.10;64.20;17.00;101989.00;;;;5031805;28;20236;-77
2023/10/15 10:35:27;;;;;;;1.67;0.35;;;15.20;64.10;17.10;101991.00;;;;5031510;28;20219;-77
2023/10/15 10:38:05;;;;;;;2.58;0.50;;;15.30;64.10;17.10;101993.00;;;;5013810;28;20208;-77
2023/10/15 10:40:52;;;;;;;2.00;0.25;;;15.40;63.80;17.20;101991.00;;;;5012991;28;20223;-77
2023/10/15 10:43:21;;;;;;;1.25;0.28;;;15.40;63.60;17.40;101988.00;;;;5014373;28;20211;-77
2023/10/15 10:45:56;;;;;;;1.60;0.43;;;15.50;63.80;17.40;101992.00;;;;5011175;28;20566;-77
2023/10/15 10:48:27;;;;;;;1.48;0.20;;;15.60;63.70;17.50;101991.00;;;;5012595;28;20203;-77
2023/10/15 10:51:15;;;;;;;2.53;0.30;;;15.70;63.70;17.60;101991.00;;;;5027893;28;20203;-77
2023/10/15 10:54:27;;;;;;;1.80;0.77;;;15.80;63.40;17.80;101991.00;;;;5022889;28;20192;-77
2023/10/15 10:57:00;;;;;;;3.35;0.30;;;15.90;63.10;18.00;101991.00;;;;5031126;28;20674;-77
2023/10/15 10:59:30;;;;;;;2.55;0.80;;;16.10;63.30;18.10;102002.00;;;;5027037;28;20204;-77
2023/10/15 11:01:57;;;;;;;2.13;0.63;;;16.10;63.10;18.20;102012.00;;;;5011210;28;20236;-76
2023/10/15 11:04:27;;;;;;;2.63;0.68;;;16.20;63.10;18.10;102041.00;;;;5011293;28;20296;-77